createdAt,value
2019-01-15T00:01:29.409Z,93734.77
2019-01-15T00:03:57.482Z,93730.61
2019-01-15T00:07:06.036Z,93742.34
2019-01-15T00:10:14.509Z,93742.75
2019-01-15T00:12:41.849Z,93741.08
2019-01-15T00:15:10.538Z,93746.99
2019-01-15T00:17:39.150Z,93757.88
2019-01-15T00:20:08.164Z,93756.17
2019-01-15T00:22:36.379Z,93769.17
2019-01-15T00:25:44.749Z,93766.67
2019-01-15T00:28:12.978Z,93772.97
2019-01-15T00:30:40.746Z,93777.94
2019-01-15T00:33:08.180Z,93783.00
2019-01-15T00:35:35.583Z,93786.36
2019-01-15T00:38:04.059Z,93781.73
2019-01-15T00:40:32.133Z,93788.89
2019-01-15T00:43:00.217Z,93790.98
2019-01-15T00:45:28.567Z,93791.86
2019-01-15T00:47:57.182Z,93785.59
2019-01-15T00:50:25.677Z,93798.55
2019-01-15T00:52:54.150Z,93792.28
2019-01-15T00:58:30.326Z,93801.92
2019-01-15T01:00:58.712Z,93802.34
2019-01-15T01:03:26.728Z,93802.34
2019-01-15T01:05:54.807Z,93808.67
2019-01-15T01:08:23.242Z,93805.72
2019-01-15T01:10:51.413Z,93811.58
2019-01-15T01:13:19.551Z,93813.65
2019-01-15T01:15:46.897Z,93818.66
2019-01-15T01:18:15.053Z,93816.53
2019-01-15T01:20:43.517Z,93822.86
2019-01-15T01:23:11.855Z,93826.27
2019-01-15T01:25:40.003Z,93832.55
2019-01-15T01:28:08.467Z,93834.64
2019-01-15T01:30:36.655Z,93835.55
2019-01-15T01:33:04.749Z,93835.98
2019-01-15T01:35:33.213Z,93837.23
2019-01-15T01:38:01.572Z,93839.73
2019-01-15T01:40:30.013Z,93837.66
2019-01-15T01:42:58.366Z,93841.41
2019-01-15T01:45:26.784Z,93854.82
2019-01-15T01:47:54.989Z,93858.20
2019-01-15T01:51:03.450Z,93857.37
2019-01-15T01:53:31.201Z,93861.62
2019-01-15T01:56:39.696Z,93864.16
2019-01-15T01:59:07.794Z,93869.98
2019-01-15T02:01:36.282Z,93881.41
2019-01-15T02:04:04.753Z,93884.77
2019-01-15T02:07:13.257Z,93880.52
2019-01-15T02:09:41.407Z,93878.86
2019-01-15T02:12:09.610Z,93877.99
2019-01-15T02:14:56.735Z,93871.27
2019-01-15T02:17:25.220Z,93868.31
2019-01-15T02:19:53.623Z,93863.64
2019-01-15T02:22:21.955Z,93861.59
2019-01-15T02:24:49.958Z,93863.69
2019-01-15T02:27:18.243Z,93862.04
2019-01-15T02:29:46.729Z,93853.17
2019-01-15T02:32:14.910Z,93853.59
2019-01-15T02:34:43.408Z,93851.98
2019-01-15T02:37:11.829Z,93858.16
2019-01-15T02:39:39.968Z,93869.52
2019-01-15T02:42:47.788Z,93870.78
2019-01-15T02:45:17.099Z,93873.30
2019-01-15T02:47:45.829Z,93872.91
2019-01-15T02:50:15.758Z,93880.41
2019-01-15T02:52:43.838Z,93874.55
2019-01-15T02:58:00.961Z,93874.50
2019-01-15T03:00:28.664Z,93874.14
2019-01-15T03:02:56.104Z,93878.28
2019-01-15T03:05:24.176Z,93882.87
2019-01-15T03:07:52.580Z,93878.67
2019-01-15T03:11:00.883Z,93878.33
2019-01-15T03:13:28.969Z,93881.64
2019-01-15T03:15:57.119Z,93878.78
2019-01-15T03:18:24.535Z,93879.98
2019-01-15T03:20:52.728Z,93877.83
2019-01-15T03:23:21.142Z,93884.58
2019-01-15T03:25:49.734Z,93882.51
2019-01-15T03:31:13.115Z,93887.94
2019-01-15T03:33:41.351Z,93893.84
2019-01-15T03:36:09.159Z,93890.13
2019-01-15T03:38:37.560Z,93893.48
2019-01-15T03:41:05.613Z,93885.08
2019-01-15T03:43:33.802Z,93888.89
2019-01-15T03:46:04.502Z,93893.48
2019-01-15T03:48:31.503Z,93885.08
2019-01-15T03:50:59.603Z,93888.80
2019-01-15T03:54:08.019Z,93888.86
2019-01-15T03:56:35.772Z,93894.29
2019-01-15T03:59:04.254Z,93895.55
2019-01-15T04:01:32.308Z,93895.91
2019-01-15T04:04:00.004Z,93892.53
2019-01-15T04:06:28.245Z,93890.45
2019-01-15T04:08:55.608Z,93888.30
2019-01-15T04:11:24.104Z,93894.30
2019-01-15T04:13:51.750Z,93887.07
2019-01-15T04:16:19.844Z,93894.09
2019-01-15T04:18:48.234Z,93890.01
2019-01-15T04:21:16.313Z,93894.53
2019-01-15T04:23:44.522Z,93903.32
2019-01-15T04:26:12.675Z,93896.66
2019-01-15T04:28:40.438Z,93893.34
2019-01-15T04:31:08.459Z,93888.72
2019-01-15T04:33:36.189Z,93888.69
2019-01-15T04:36:44.631Z,93882.39
2019-01-15T04:39:12.654Z,93887.85
2019-01-15T04:41:40.074Z,93890.82
2019-01-15T04:44:08.268Z,93888.21
2019-01-15T04:46:36.783Z,93885.69
2019-01-15T04:49:05.203Z,93887.73
2019-01-15T04:51:32.872Z,93885.27
2019-01-15T04:54:00.940Z,93892.77
2019-01-15T04:56:28.995Z,93889.34
2019-01-15T04:58:57.134Z,93890.22
2019-01-15T05:01:24.935Z,93888.50
2019-01-15T05:03:53.432Z,93889.92
2019-01-15T05:06:21.204Z,93892.50
2019-01-15T05:08:48.988Z,93888.23
2019-01-15T05:11:24.281Z,93885.39
2019-01-15T05:16:47.687Z,93891.59
2019-01-15T05:19:15.865Z,93889.50
2019-01-15T05:21:43.845Z,93896.33
2019-01-15T05:24:12.431Z,93900.20
2019-01-15T05:26:39.896Z,93897.23
2019-01-15T05:29:08.314Z,93895.10
2019-01-15T05:31:36.095Z,93887.57
2019-01-15T05:34:04.241Z,93890.52
2019-01-15T05:36:32.494Z,93902.23
2019-01-15T05:39:00.281Z,93907.28
2019-01-15T05:41:28.362Z,93906.02
2019-01-15T05:43:56.763Z,93902.69
2019-01-15T05:46:25.322Z,93903.19
2019-01-15T05:48:53.743Z,93911.62
2019-01-15T05:54:17.417Z,93927.97
2019-01-15T05:56:45.577Z,93923.80
2019-01-15T05:59:13.869Z,93927.58
2019-01-15T06:01:41.940Z,93927.52
2019-01-15T06:04:10.133Z,93919.15
2019-01-15T06:06:38.613Z,93902.41
2019-01-15T06:09:08.990Z,93904.53
2019-01-15T06:11:36.807Z,93921.73
2019-01-15T06:14:44.918Z,93914.59
2019-01-15T06:17:13.085Z,93916.29
2019-01-15T06:19:40.513Z,93917.50
2019-01-15T06:22:09.121Z,93912.88
2019-01-15T06:24:37.629Z,93925.42
2019-01-15T06:27:05.687Z,93923.32
2019-01-15T06:29:33.370Z,93919.14
2019-01-15T06:32:01.229Z,93925.92
2019-01-15T06:34:29.648Z,93934.30
2019-01-15T06:36:58.034Z,93935.11
2019-01-15T06:39:26.605Z,93926.73
2019-01-15T06:41:54.716Z,93928.53
2019-01-15T06:44:22.760Z,93926.00
2019-01-15T06:46:50.922Z,93915.48
2019-01-15T06:49:19.318Z,93918.78
2019-01-15T06:51:47.490Z,93928.45
2019-01-15T06:54:15.905Z,93926.73
2019-01-15T06:56:44.358Z,93935.17
2019-01-15T06:59:12.521Z,93933.98
2019-01-15T07:01:40.982Z,93935.14
2019-01-15T07:04:09.193Z,93931.39
2019-01-15T07:06:37.700Z,93937.69
2019-01-15T07:09:48.146Z,93934.32
2019-01-15T07:12:15.938Z,93935.17
2019-01-15T07:14:44.310Z,93936.34
2019-01-15T07:17:12.469Z,93933.79
2019-01-15T07:19:40.573Z,93936.01
2019-01-15T07:22:08.630Z,93933.91
2019-01-15T07:24:36.060Z,93940.53
2019-01-15T07:27:04.166Z,93936.00
2019-01-15T07:29:32.279Z,93940.59
2019-01-15T07:32:00.013Z,93944.77
2019-01-15T07:34:27.729Z,93946.45
2019-01-15T07:36:56.100Z,93945.12
2019-01-15T07:39:24.244Z,93947.20
2019-01-15T07:41:52.845Z,93954.34
2019-01-15T07:44:21.320Z,93953.14
2019-01-15T07:46:49.661Z,93954.75
2019-01-15T07:49:17.780Z,93957.37
2019-01-15T07:51:46.263Z,93950.14
2019-01-15T07:54:13.704Z,93954.42
2019-01-15T07:56:41.916Z,93944.38
2019-01-15T07:59:09.593Z,93946.42
2019-01-15T08:01:37.754Z,93942.64
2019-01-15T08:04:06.259Z,93949.36
2019-01-15T08:06:34.427Z,93958.23
2019-01-15T08:12:10.934Z,93968.02
2019-01-15T08:14:38.665Z,93966.39
2019-01-15T08:17:06.435Z,93971.52
2019-01-15T08:19:34.844Z,93964.40
2019-01-15T08:22:03.356Z,93960.56
2019-01-15T08:24:31.406Z,93959.36
2019-01-15T08:26:59.820Z,93972.77
2019-01-15T08:29:28.419Z,93970.22
2019-01-15T08:34:29.936Z,93955.63
2019-01-15T08:36:58.474Z,93951.02
2019-01-15T08:39:26.310Z,93964.42
2019-01-15T08:41:56.029Z,93968.66
2019-01-15T08:47:14.375Z,93973.69
2019-01-15T08:49:42.506Z,93970.83
2019-01-15T08:52:11.009Z,93962.44
2019-01-15T08:54:39.233Z,93956.63
2019-01-15T08:57:06.998Z,93955.73
2019-01-15T08:59:35.481Z,93958.34
2019-01-15T09:02:03.557Z,93952.86
2019-01-15T09:04:32.035Z,93955.41
2019-01-15T09:07:00.532Z,93955.05
2019-01-15T09:09:28.715Z,93951.80
2019-01-15T09:11:56.485Z,93944.70
2019-01-15T09:17:19.858Z,93957.78
2019-01-15T09:19:47.243Z,93961.14
2019-01-15T09:22:15.407Z,93966.17
2019-01-15T09:24:43.167Z,93967.05
2019-01-15T09:27:10.943Z,93964.56
2019-01-15T09:29:39.135Z,93959.91
2019-01-15T09:32:06.847Z,93960.81
2019-01-15T09:34:35.489Z,93952.45
2019-01-15T09:39:39.615Z,93958.80
2019-01-15T09:42:07.727Z,93957.08
2019-01-15T09:47:25.111Z,93965.51
2019-01-15T09:49:53.237Z,93965.52
2019-01-15T09:52:21.734Z,93973.10
2019-01-15T09:55:29.907Z,93969.34
2019-01-15T09:58:37.988Z,93972.29
2019-01-15T10:04:01.659Z,93960.15
2019-01-15T10:06:29.528Z,93953.05
2019-01-15T10:11:53.126Z,93959.80
2019-01-15T10:14:21.706Z,93959.34
2019-01-15T10:16:50.210Z,93959.77
2019-01-15T10:19:18.689Z,93968.64
2019-01-15T10:22:27.186Z,93966.93
2019-01-15T10:28:25.077Z,93966.09
2019-01-15T10:31:49.600Z,93975.32
2019-01-15T10:35:00.250Z,93969.84
2019-01-15T10:38:08.405Z,93968.16
2019-01-15T10:41:16.915Z,93947.55
2019-01-15T10:44:25.529Z,93941.63
2019-01-15T10:46:54.022Z,93935.76
2019-01-15T10:50:01.859Z,93931.53
2019-01-15T10:55:25.194Z,93919.72
2019-01-15T10:57:53.021Z,93918.88
2019-01-15T11:01:01.562Z,93916.34
2019-01-15T11:03:29.749Z,93917.62
2019-01-15T11:09:48.028Z,93920.92
2019-01-15T11:12:56.571Z,93905.28
2019-01-15T11:16:05.020Z,93905.25
2019-01-15T11:22:08.471Z,93886.17
2019-01-15T11:24:36.220Z,93899.73
2019-01-15T11:27:23.800Z,93885.23
2019-01-15T11:29:51.624Z,93886.09
2019-01-15T11:32:19.717Z,93881.16
2019-01-15T11:34:48.190Z,93882.88
2019-01-15T11:37:15.954Z,93880.80
2019-01-15T11:40:24.454Z,93876.06
2019-01-15T11:42:52.604Z,93880.19
2019-01-15T11:45:20.461Z,93872.46
2019-01-15T11:48:28.581Z,93870.98
2019-01-15T11:50:55.947Z,93869.28
2019-01-15T11:53:24.023Z,93867.20
2019-01-15T11:55:52.206Z,93853.84
2019-01-15T12:02:09.513Z,93837.72
2019-01-15T12:04:57.105Z,93849.58
2019-01-15T12:08:05.629Z,93839.20
2019-01-15T12:11:13.892Z,93841.66
2019-01-15T12:14:01.608Z,93840.47
2019-01-15T12:25:34.054Z,93829.73
2019-01-15T12:28:21.687Z,93835.70
2019-01-15T12:31:08.558Z,93833.52
2019-01-15T12:33:55.897Z,93836.67
2019-01-15T12:37:04.134Z,93827.81
2019-01-15T12:40:11.937Z,93828.88
2019-01-15T12:42:59.250Z,93825.16
2019-01-15T12:46:07.516Z,93824.76
2019-01-15T12:48:54.421Z,93832.77
2019-01-15T12:51:41.622Z,93822.55
2019-01-15T12:57:24.248Z,93825.04
2019-01-15T13:00:11.915Z,93814.95
2019-01-15T13:05:54.571Z,93810.78
2019-01-15T13:08:42.337Z,93807.50
2019-01-15T13:11:29.815Z,93810.45
2019-01-15T13:14:17.105Z,93810.89
2019-01-15T13:17:25.931Z,93821.45
2019-01-15T13:20:34.367Z,93811.78
2019-01-15T13:26:51.152Z,93817.30
2019-01-15T13:29:38.771Z,93825.28
2019-01-15T13:32:47.230Z,93817.28
2019-01-15T13:35:34.521Z,93814.75
2019-01-15T13:38:21.822Z,93824.45
2019-01-15T13:41:09.397Z,93817.69
2019-01-15T13:43:56.401Z,93821.45
2019-01-15T13:46:43.423Z,93818.06
2019-01-15T13:49:23.875Z,93821.45
2019-01-15T13:52:11.136Z,93827.75
2019-01-15T13:55:19.213Z,93827.72
2019-01-15T13:58:27.711Z,93825.63
2019-01-15T14:01:15.020Z,93822.67
2019-01-15T14:04:02.310Z,93818.48
2019-01-15T14:06:49.612Z,93817.20
2019-01-15T14:09:36.677Z,93823.56
2019-01-15T14:12:23.658Z,93821.47
2019-01-15T14:15:31.730Z,93823.15
2019-01-15T14:18:39.870Z,93823.60
2019-01-15T14:21:27.392Z,93829.47
2019-01-15T14:24:15.066Z,93826.54
2019-01-15T14:27:02.819Z,93814.28
2019-01-15T14:30:11.204Z,93818.06
2019-01-15T14:32:58.198Z,93814.70
2019-01-15T14:35:45.664Z,93818.48
2019-01-15T14:38:53.945Z,93824.41
2019-01-15T14:41:32.715Z,93820.19
2019-01-15T14:44:40.825Z,93824.44
2019-01-15T14:50:57.321Z,93824.85
2019-01-15T14:53:44.996Z,93818.16
2019-01-15T14:56:32.397Z,93813.91
2019-01-15T14:59:19.703Z,93818.56
2019-01-15T15:02:07.032Z,93818.56
2019-01-15T15:04:54.420Z,93821.94
2019-01-15T15:07:41.731Z,93832.45
2019-01-15T15:10:28.962Z,93824.03
2019-01-15T15:13:16.248Z,93821.50
2019-01-15T15:16:03.970Z,93814.36
2019-01-15T15:21:59.709Z,93824.44
2019-01-15T15:24:46.921Z,93821.09
2019-01-15T15:27:34.192Z,93815.61
2019-01-15T15:33:30.056Z,93816.88
2019-01-15T15:39:12.151Z,93816.48
2019-01-15T15:42:20.274Z,93814.78
2019-01-15T15:45:07.487Z,93813.97
2019-01-15T15:47:54.176Z,93815.64
2019-01-15T15:50:41.766Z,93813.52
2019-01-15T15:53:29.384Z,93821.96
2019-01-15T15:56:16.627Z,93816.06
2019-01-15T15:59:04.256Z,93819.00
2019-01-15T16:01:51.851Z,93811.41
2019-01-15T16:04:39.486Z,93821.11
2019-01-15T16:07:26.376Z,93816.91
2019-01-15T16:10:06.862Z,93819.84
2019-01-15T16:12:53.845Z,93816.91
2019-01-15T16:15:41.508Z,93821.96
2019-01-15T16:18:28.387Z,93835.02
2019-01-15T16:21:16.027Z,93816.45
2019-01-15T16:24:03.573Z,93813.94
2019-01-15T16:26:50.899Z,93816.45
2019-01-15T16:29:28.784Z,93808.86
2019-01-15T16:32:16.157Z,93805.91
2019-01-15T16:34:54.259Z,93812.66
2019-01-15T16:37:41.222Z,93808.03
2019-01-15T16:40:29.298Z,93812.66
2019-01-15T16:43:16.903Z,93808.05
2019-01-15T16:46:04.557Z,93802.11
2019-01-15T16:48:52.242Z,93809.70
2019-01-15T16:54:34.138Z,93800.87
2019-01-15T16:57:42.281Z,93811.84
2019-01-15T17:00:34.124Z,93811.00
2019-01-15T17:03:04.724Z,93809.71
2019-01-15T17:09:00.795Z,93802.53
2019-01-15T17:12:09.291Z,93802.98
2019-01-15T17:15:17.376Z,93805.06
2019-01-15T17:18:05.071Z,93805.08
2019-01-15T17:20:52.807Z,93804.66
2019-01-15T17:23:40.417Z,93806.35
2019-01-15T17:26:27.994Z,93804.63
2019-01-15T17:29:15.617Z,93804.20
2019-01-15T17:32:23.528Z,93805.06
2019-01-15T17:35:11.132Z,93808.03
2019-01-15T17:37:58.986Z,93811.41
2019-01-15T17:40:46.262Z,93819.83
2019-01-15T17:43:33.952Z,93818.14
2019-01-15T17:46:21.176Z,93810.56
2019-01-15T17:49:08.948Z,93805.47
2019-01-15T17:51:56.650Z,93813.92
2019-01-15T17:54:44.322Z,93808.02
2019-01-15T17:57:52.873Z,93802.13
2019-01-15T18:00:40.587Z,93800.03
2019-01-15T18:03:27.515Z,93804.23
2019-01-15T18:06:14.857Z,93801.27
2019-01-15T18:09:02.506Z,93807.58
2019-01-15T18:11:50.090Z,93807.55
2019-01-15T18:14:37.850Z,93805.45
2019-01-15T18:17:46.349Z,93807.17
2019-01-15T18:23:29.559Z,93802.10
2019-01-15T18:26:17.200Z,93799.57
2019-01-15T18:35:27.934Z,93800.87
2019-01-15T18:38:06.393Z,93810.12
2019-01-15T18:41:15.110Z,93802.13
2019-01-15T18:44:23.853Z,93802.98
2019-01-15T18:47:11.681Z,93803.80
2019-01-15T18:53:07.883Z,93803.80
2019-01-15T18:59:04.151Z,93796.64
2019-01-15T19:04:47.266Z,93789.89
2019-01-15T19:10:28.135Z,93789.03
2019-01-15T19:13:15.532Z,93790.71
2019-01-15T19:16:03.256Z,93789.47
2019-01-15T19:18:51.107Z,93786.11
2019-01-15T19:21:29.779Z,93783.98
2019-01-15T19:24:10.043Z,93781.48
2019-01-15T19:27:18.775Z,93778.50
2019-01-15T19:30:06.498Z,93780.22
2019-01-15T19:32:53.893Z,93781.02
2019-01-15T19:35:40.955Z,93783.16
2019-01-15T19:41:22.849Z,93782.72
2019-01-15T19:44:12.000Z,93780.64
2019-01-15T19:46:59.250Z,93782.73
2019-01-15T19:49:47.161Z,93780.22
2019-01-15T19:52:34.415Z,93779.34
2019-01-15T19:55:21.759Z,93772.63
2019-01-15T19:58:09.115Z,93773.06
2019-01-15T20:00:56.343Z,93776.00
2019-01-15T20:06:39.071Z,93773.49
2019-01-15T20:09:27.156Z,93775.59
2019-01-15T20:12:03.851Z,93763.35
2019-01-15T20:14:51.492Z,93765.04
2019-01-15T20:17:38.740Z,93762.12
2019-01-15T20:20:25.019Z,93769.70
2019-01-15T20:26:19.149Z,93770.55
2019-01-15T20:29:05.890Z,93774.70
2019-01-15T20:31:53.203Z,93775.16
2019-01-15T20:34:40.811Z,93776.01
2019-01-15T20:37:19.196Z,93776.02
2019-01-15T20:40:06.963Z,93779.38
2019-01-15T20:42:50.783Z,93771.38
2019-01-15T20:45:38.603Z,93775.18
2019-01-15T20:51:25.778Z,93773.91
2019-01-15T20:54:13.229Z,93770.55
2019-01-15T20:57:00.884Z,93773.95
2019-01-15T20:59:48.511Z,93774.75
2019-01-15T21:02:36.158Z,93775.59
2019-01-15T21:05:44.748Z,93774.77
2019-01-15T21:08:32.018Z,93771.84
2019-01-15T21:11:18.713Z,93767.59
2019-01-15T21:14:06.358Z,93771.42
2019-01-15T21:16:53.909Z,93769.73
2019-01-15T21:19:34.332Z,93769.30
2019-01-15T21:22:21.961Z,93770.55
2019-01-15T21:25:09.558Z,93770.97
2019-01-15T21:27:57.209Z,93773.09
2019-01-15T21:30:50.475Z,93768.02
2019-01-15T21:33:33.637Z,93772.25
2019-01-15T21:36:21.152Z,93762.95
2019-01-15T21:39:08.925Z,93773.07
2019-01-15T21:41:55.861Z,93765.06
2019-01-15T21:44:43.454Z,93763.41
2019-01-15T21:47:51.332Z,93758.77
2019-01-15T21:50:38.598Z,93767.61
2019-01-15T21:53:26.394Z,93759.17
2019-01-15T21:56:13.647Z,93764.67
2019-01-15T22:01:56.937Z,93765.52
2019-01-15T22:05:05.700Z,93762.58
2019-01-15T22:08:13.263Z,93766.36
2019-01-15T22:11:01.520Z,93768.47
2019-01-15T22:14:08.539Z,93768.06
2019-01-15T22:16:56.137Z,93759.21
2019-01-15T22:19:56.138Z,93755.81
2019-01-15T22:23:02.778Z,93763.41
2019-01-15T22:26:09.098Z,93757.51
2019-01-15T22:28:57.177Z,93760.06
2019-01-15T22:31:45.268Z,93754.98
2019-01-15T22:34:33.077Z,93738.55
2019-01-15T22:37:42.157Z,93744.88
2019-01-15T22:40:29.450Z,93741.10
2019-01-15T22:43:16.666Z,93735.64
2019-01-15T22:46:04.312Z,93742.36
2019-01-15T22:48:41.909Z,93736.49
2019-01-15T22:51:29.551Z,93733.53
2019-01-15T22:54:17.130Z,93733.52
2019-01-15T22:57:05.361Z,93731.42
2019-01-15T22:59:52.657Z,93720.88
2019-01-15T23:02:39.897Z,93723.41
2019-01-15T23:05:27.179Z,93729.30
2019-01-15T23:08:14.758Z,93717.09
2019-01-15T23:11:01.762Z,93712.87
2019-01-15T23:13:49.102Z,93708.66
2019-01-15T23:19:45.170Z,93705.30
2019-01-15T23:22:32.751Z,93696.87
2019-01-15T23:25:20.404Z,93699.38
2019-01-15T23:28:03.519Z,93699.81
2019-01-15T23:30:50.840Z,93698.14
2019-01-15T23:34:01.137Z,93689.72
2019-01-15T23:36:48.706Z,93684.22
2019-01-15T23:39:36.395Z,93682.56
2019-01-15T23:42:44.925Z,93680.42
2019-01-15T23:45:32.502Z,93679.16
2019-01-15T23:51:14.491Z,93686.34
2019-01-15T23:54:01.945Z,93681.29
2019-01-15T23:56:49.200Z,93670.75
2019-01-15T23:59:36.605Z,93674.56
